sim
Sign-in with your pilot id or email,
or register
Callsign
Passwort

Schedule Details

Flight Number: OEO3281
Departure: Alicante Airport (LEAL) at 09:25
Arrival: Munich Airport (EDDM) at 11:50

Weather Information
Getting current METAR information for LEAL 010630Z 23005KT 210V270 CAVOK 17/15 Q1010 NOSIG
Getting current METAR information for EDDM 010650Z 00000KT 0800 R08L/0400U R08R/0275N FG SCT001 06/05 Q1009 BECMG 1500 BCFG

Schedule Frequency

Route Map